sensor_id;sensor_type;location;lat;lon;timestamp;P1;durP1;ratioP1;P2;durP2;ratioP2
64688;SDS011;62504;46.070;14.492;2023-11-18T00:01:14;8.70;;;3.33;;
64688;SDS011;62504;46.070;14.492;2023-11-18T00:03:40;7.40;;;3.03;;
64688;SDS011;62504;46.070;14.492;2023-11-18T00:06:06;6.47;;;2.90;;
64688;SDS011;62504;46.070;14.492;2023-11-18T00:08:32;8.67;;;2.97;;
64688;SDS011;62504;46.070;14.492;2023-11-18T00:10:58;8.97;;;3.17;;
64688;SDS011;62504;46.070;14.492;2023-11-18T00:13:24;10.80;;;3.43;;
64688;SDS011;62504;46.070;14.492;2023-11-18T00:15:51;10.63;;;3.80;;
64688;SDS011;62504;46.070;14.492;2023-11-18T00:18:17;10.03;;;3.30;;
64688;SDS011;62504;46.070;14.492;2023-11-18T00:20:44;10.87;;;3.30;;
64688;SDS011;62504;46.070;14.492;2023-11-18T00:23:10;7.83;;;3.50;;
64688;SDS011;62504;46.070;14.492;2023-11-18T00:25:35;10.40;;;3.30;;
64688;SDS011;62504;46.070;14.492;2023-11-18T00:28:01;10.83;;;3.47;;
64688;SDS011;62504;46.070;14.492;2023-11-18T00:30:27;10.07;;;3.80;;
64688;SDS011;62504;46.070;14.492;2023-11-18T00:32:53;10.40;;;4.03;;
64688;SDS011;62504;46.070;14.492;2023-11-18T00:35:19;10.57;;;3.70;;
64688;SDS011;62504;46.070;14.492;2023-11-18T00:37:44;10.43;;;3.30;;
64688;SDS011;62504;46.070;14.492;2023-11-18T00:40:10;8.47;;;3.23;;
64688;SDS011;62504;46.070;14.492;2023-11-18T00:42:36;7.53;;;3.23;;
64688;SDS011;62504;46.070;14.492;2023-11-18T00:45:03;9.30;;;3.63;;
64688;SDS011;62504;46.070;14.492;2023-11-18T00:47:29;6.97;;;3.17;;
64688;SDS011;62504;46.070;14.492;2023-11-18T00:49:55;8.43;;;3.50;;
64688;SDS011;62504;46.070;14.492;2023-11-18T00:52:22;8.83;;;3.90;;
64688;SDS011;62504;46.070;14.492;2023-11-18T00:54:48;8.40;;;3.50;;
64688;SDS011;62504;46.070;14.492;2023-11-18T00:57:13;10.27;;;3.47;;
64688;SDS011;62504;46.070;14.492;2023-11-18T00:59:42;8.90;;;3.37;;
64688;SDS011;62504;46.070;14.492;2023-11-18T01:02:08;7.37;;;3.47;;
64688;SDS011;62504;46.070;14.492;2023-11-18T01:04:34;9.50;;;3.23;;
64688;SDS011;62504;46.070;14.492;2023-11-18T01:07:00;9.33;;;3.30;;
64688;SDS011;62504;46.070;14.492;2023-11-18T01:09:25;7.03;;;3.07;;
64688;SDS011;62504;46.070;14.492;2023-11-18T01:11:52;7.83;;;3.40;;
64688;SDS011;62504;46.070;14.492;2023-11-18T01:14:17;6.80;;;3.33;;
64688;SDS011;62504;46.070;14.492;2023-11-18T01:16:44;9.50;;;3.10;;
64688;SDS011;62504;46.070;14.492;2023-11-18T01:19:10;11.10;;;3.17;;
64688;SDS011;62504;46.070;14.492;2023-11-18T01:21:36;8.80;;;3.20;;
64688;SDS011;62504;46.070;14.492;2023-11-18T01:24:01;8.37;;;3.00;;
64688;SDS011;62504;46.070;14.492;2023-11-18T01:26:27;5.67;;;2.90;;
64688;SDS011;62504;46.070;14.492;2023-11-18T01:28:53;9.27;;;3.13;;
64688;SDS011;62504;46.070;14.492;2023-11-18T01:31:20;7.57;;;3.67;;
64688;SDS011;62504;46.070;14.492;2023-11-18T01:33:46;8.97;;;3.40;;
64688;SDS011;62504;46.070;14.492;2023-11-18T01:36:15;8.17;;;3.63;;
64688;SDS011;62504;46.070;14.492;2023-11-18T01:38:40;8.13;;;3.60;;
64688;SDS011;62504;46.070;14.492;2023-11-18T01:41:06;7.87;;;3.30;;
64688;SDS011;62504;46.070;14.492;2023-11-18T01:43:33;8.17;;;3.40;;
64688;SDS011;62504;46.070;14.492;2023-11-18T01:46:02;8.43;;;3.13;;
64688;SDS011;62504;46.070;14.492;2023-11-18T01:48:33;10.07;;;3.30;;
64688;SDS011;62504;46.070;14.492;2023-11-18T01:50:59;8.07;;;3.87;;
64688;SDS011;62504;46.070;14.492;2023-11-18T01:53:26;6.37;;;2.90;;
64688;SDS011;62504;46.070;14.492;2023-11-18T01:55:53;10.30;;;3.73;;
64688;SDS011;62504;46.070;14.492;2023-11-18T01:58:19;8.00;;;3.60;;
64688;SDS011;62504;46.070;14.492;2023-11-18T02:00:48;7.80;;;3.20;;
64688;SDS011;62504;46.070;14.492;2023-11-18T02:03:16;6.53;;;3.00;;
64688;SDS011;62504;46.070;14.492;2023-11-18T02:05:42;8.17;;;3.47;;
64688;SDS011;62504;46.070;14.492;2023-11-18T02:08:09;9.43;;;3.77;;
64688;SDS011;62504;46.070;14.492;2023-11-18T02:10:36;7.37;;;3.30;;
64688;SDS011;62504;46.070;14.492;2023-11-18T02:13:13;8.70;;;3.30;;
64688;SDS011;62504;46.070;14.492;2023-11-18T02:15:55;7.03;;;3.40;;
64688;SDS011;62504;46.070;14.492;2023-11-18T02:18:25;10.07;;;3.80;;
64688;SDS011;62504;46.070;14.492;2023-11-18T02:20:57;7.23;;;3.43;;
64688;SDS011;62504;46.070;14.492;2023-11-18T02:23:24;8.50;;;3.63;;
64688;SDS011;62504;46.070;14.492;2023-11-18T02:25:53;8.37;;;3.53;;
64688;SDS011;62504;46.070;14.492;2023-11-18T02:28:22;7.13;;;3.43;;
64688;SDS011;62504;46.070;14.492;2023-11-18T02:30:49;8.10;;;3.80;;
64688;SDS011;62504;46.070;14.492;2023-11-18T02:33:27;9.47;;;3.57;;
64688;SDS011;62504;46.070;14.492;2023-11-18T02:36:13;9.20;;;3.60;;
64688;SDS011;62504;46.070;14.492;2023-11-18T02:38:46;8.23;;;3.77;;
64688;SDS011;62504;46.070;14.492;2023-11-18T02:41:14;7.20;;;3.43;;
64688;SDS011;62504;46.070;14.492;2023-11-18T02:43:43;11.67;;;4.10;;
64688;SDS011;62504;46.070;14.492;2023-11-18T02:46:09;7.47;;;3.57;;
64688;SDS011;62504;46.070;14.492;2023-11-18T02:48:38;9.70;;;4.27;;
64688;SDS011;62504;46.070;14.492;2023-11-18T02:51:04;16.30;;;5.83;;
64688;SDS011;62504;46.070;14.492;2023-11-18T02:53:32;13.30;;;5.53;;
64688;SDS011;62504;46.070;14.492;2023-11-18T02:55:59;16.03;;;5.43;;
64688;SDS011;62504;46.070;14.492;2023-11-18T02:58:29;10.93;;;5.30;;
64688;SDS011;62504;46.070;14.492;2023-11-18T03:00:55;12.60;;;5.40;;
64688;SDS011;62504;46.070;14.492;2023-11-18T03:03:20;11.23;;;5.00;;
64688;SDS011;62504;46.070;14.492;2023-11-18T03:05:46;11.43;;;4.70;;
64688;SDS011;62504;46.070;14.492;2023-11-18T03:08:14;10.73;;;4.57;;
64688;SDS011;62504;46.070;14.492;2023-11-18T03:10:40;10.73;;;4.47;;
64688;SDS011;62504;46.070;14.492;2023-11-18T03:13:09;10.10;;;4.57;;
64688;SDS011;62504;46.070;14.492;2023-11-18T03:15:35;12.27;;;4.90;;
64688;SDS011;62504;46.070;14.492;2023-11-18T03:18:01;10.97;;;4.60;;
64688;SDS011;62504;46.070;14.492;2023-11-18T03:20:27;9.53;;;4.43;;
64688;SDS011;62504;46.070;14.492;2023-11-18T03:22:54;11.17;;;4.50;;
64688;SDS011;62504;46.070;14.492;2023-11-18T03:25:20;11.07;;;4.30;;
64688;SDS011;62504;46.070;14.492;2023-11-18T03:27:47;11.80;;;4.67;;
64688;SDS011;62504;46.070;14.492;2023-11-18T03:30:13;10.57;;;4.30;;
64688;SDS011;62504;46.070;14.492;2023-11-18T03:32:39;10.17;;;3.93;;
64688;SDS011;62504;46.070;14.492;2023-11-18T03:35:06;10.40;;;4.37;;
64688;SDS011;62504;46.070;14.492;2023-11-18T03:37:33;12.17;;;4.27;;
64688;SDS011;62504;46.070;14.492;2023-11-18T03:39:59;10.80;;;4.80;;
64688;SDS011;62504;46.070;14.492;2023-11-18T03:42:25;9.03;;;4.40;;
64688;SDS011;62504;46.070;14.492;2023-11-18T03:44:54;8.93;;;4.03;;
64688;SDS011;62504;46.070;14.492;2023-11-18T03:47:19;8.13;;;3.77;;
64688;SDS011;62504;46.070;14.492;2023-11-18T03:49:49;7.17;;;3.80;;
64688;SDS011;62504;46.070;14.492;2023-11-18T03:52:19;8.93;;;3.50;;
64688;SDS011;62504;46.070;14.492;2023-11-18T03:54:45;6.63;;;3.53;;
64688;SDS011;62504;46.070;14.492;2023-11-18T03:57:11;6.20;;;3.03;;
64688;SDS011;62504;46.070;14.492;2023-11-18T03:59:38;8.63;;;3.20;;
64688;SDS011;62504;46.070;14.492;2023-11-18T04:02:04;6.33;;;3.10;;
64688;SDS011;62504;46.070;14.492;2023-11-18T04:04:30;4.73;;;3.00;;
64688;SDS011;62504;46.070;14.492;2023-11-18T04:06:55;8.50;;;3.60;;
64688;SDS011;62504;46.070;14.492;2023-11-18T04:09:21;7.23;;;3.30;;
64688;SDS011;62504;46.070;14.492;2023-11-18T04:11:47;8.73;;;3.33;;
64688;SDS011;62504;46.070;14.492;2023-11-18T04:14:12;6.73;;;3.27;;
64688;SDS011;62504;46.070;14.492;2023-11-18T04:16:38;6.30;;;3.30;;
64688;SDS011;62504;46.070;14.492;2023-11-18T04:19:04;6.70;;;3.20;;
64688;SDS011;62504;46.070;14.492;2023-11-18T04:21:30;8.13;;;3.60;;
64688;SDS011;62504;46.070;14.492;2023-11-18T04:23:56;8.57;;;3.70;;
64688;SDS011;62504;46.070;14.492;2023-11-18T04:26:21;8.77;;;4.10;;
64688;SDS011;62504;46.070;14.492;2023-11-18T04:28:47;8.77;;;3.50;;
64688;SDS011;62504;46.070;14.492;2023-11-18T04:31:12;8.50;;;3.60;;
64688;SDS011;62504;46.070;14.492;2023-11-18T04:33:39;6.97;;;3.10;;
64688;SDS011;62504;46.070;14.492;2023-11-18T04:36:06;8.00;;;3.33;;
64688;SDS011;62504;46.070;14.492;2023-11-18T04:38:34;9.43;;;3.40;;
64688;SDS011;62504;46.070;14.492;2023-11-18T04:41:01;9.23;;;3.60;;
64688;SDS011;62504;46.070;14.492;2023-11-18T04:43:29;10.63;;;3.70;;
64688;SDS011;62504;46.070;14.492;2023-11-18T04:45:55;8.17;;;3.60;;
64688;SDS011;62504;46.070;14.492;2023-11-18T04:48:21;11.37;;;3.93;;
64688;SDS011;62504;46.070;14.492;2023-11-18T04:50:47;7.83;;;3.70;;
64688;SDS011;62504;46.070;14.492;2023-11-18T04:53:13;9.67;;;4.23;;
64688;SDS011;62504;46.070;14.492;2023-11-18T04:55:38;12.57;;;3.73;;
64688;SDS011;62504;46.070;14.492;2023-11-18T04:58:05;7.87;;;3.80;;
64688;SDS011;62504;46.070;14.492;2023-11-18T05:00:33;9.97;;;4.03;;
64688;SDS011;62504;46.070;14.492;2023-11-18T05:02:59;7.17;;;3.50;;
64688;SDS011;62504;46.070;14.492;2023-11-18T05:05:25;7.43;;;3.90;;
64688;SDS011;62504;46.070;14.492;2023-11-18T05:07:51;7.50;;;3.30;;
64688;SDS011;62504;46.070;14.492;2023-11-18T05:10:17;6.87;;;3.57;;
64688;SDS011;62504;46.070;14.492;2023-11-18T05:12:43;7.97;;;3.67;;
64688;SDS011;62504;46.070;14.492;2023-11-18T05:15:09;11.60;;;3.70;;
64688;SDS011;62504;46.070;14.492;2023-11-18T05:17:38;11.57;;;3.83;;
64688;SDS011;62504;46.070;14.492;2023-11-18T05:20:04;8.00;;;3.60;;
64688;SDS011;62504;46.070;14.492;2023-11-18T05:22:33;8.07;;;3.10;;
64688;SDS011;62504;46.070;14.492;2023-11-18T05:25:01;8.50;;;3.23;;
64688;SDS011;62504;46.070;14.492;2023-11-18T05:27:29;10.37;;;3.57;;
64688;SDS011;62504;46.070;14.492;2023-11-18T05:29:56;10.10;;;3.20;;
64688;SDS011;62504;46.070;14.492;2023-11-18T05:32:26;9.07;;;3.43;;
64688;SDS011;62504;46.070;14.492;2023-11-18T05:34:52;7.20;;;3.17;;
64688;SDS011;62504;46.070;14.492;2023-11-18T05:37:20;9.23;;;3.50;;
64688;SDS011;62504;46.070;14.492;2023-11-18T05:39:46;6.73;;;3.20;;
64688;SDS011;62504;46.070;14.492;2023-11-18T05:42:14;7.80;;;3.30;;
64688;SDS011;62504;46.070;14.492;2023-11-18T05:44:40;8.33;;;3.20;;
64688;SDS011;62504;46.070;14.492;2023-11-18T05:47:07;7.80;;;3.70;;
64688;SDS011;62504;46.070;14.492;2023-11-18T05:49:36;8.93;;;3.70;;
64688;SDS011;62504;46.070;14.492;2023-11-18T05:52:03;10.70;;;4.17;;
64688;SDS011;62504;46.070;14.492;2023-11-18T05:54:31;7.97;;;3.50;;
64688;SDS011;62504;46.070;14.492;2023-11-18T05:56:57;8.43;;;3.70;;
64688;SDS011;62504;46.070;14.492;2023-11-18T05:59:24;8.23;;;3.40;;
64688;SDS011;62504;46.070;14.492;2023-11-18T06:01:51;10.53;;;4.03;;
64688;SDS011;62504;46.070;14.492;2023-11-18T06:04:17;11.73;;;4.53;;
64688;SDS011;62504;46.070;14.492;2023-11-18T06:06:43;12.47;;;4.37;;
64688;SDS011;62504;46.070;14.492;2023-11-18T06:09:08;11.63;;;4.30;;
64688;SDS011;62504;46.070;14.492;2023-11-18T06:11:42;9.93;;;4.73;;
64688;SDS011;62504;46.070;14.492;2023-11-18T06:14:10;11.57;;;4.40;;
64688;SDS011;62504;46.070;14.492;2023-11-18T06:16:37;8.10;;;4.57;;
64688;SDS011;62504;46.070;14.492;2023-11-18T06:19:05;9.10;;;4.50;;
64688;SDS011;62504;46.070;14.492;2023-11-18T06:21:30;9.80;;;4.80;;
64688;SDS011;62504;46.070;14.492;2023-11-18T06:24:00;11.87;;;5.10;;
64688;SDS011;62504;46.070;14.492;2023-11-18T06:26:26;12.37;;;4.70;;
64688;SDS011;62504;46.070;14.492;2023-11-18T06:28:55;9.33;;;4.80;;
64688;SDS011;62504;46.070;14.492;2023-11-18T06:31:21;12.33;;;4.27;;
64688;SDS011;62504;46.070;14.492;2023-11-18T06:33:49;8.60;;;4.10;;
64688;SDS011;62504;46.070;14.492;2023-11-18T06:38:46;7.30;;;3.47;;
64688;SDS011;62504;46.070;14.492;2023-11-18T06:41:15;7.10;;;3.63;;
64688;SDS011;62504;46.070;14.492;2023-11-18T06:43:43;6.13;;;3.10;;
64688;SDS011;62504;46.070;14.492;2023-11-18T06:46:28;10.30;;;3.67;;
64688;SDS011;62504;46.070;14.492;2023-11-18T06:48:58;8.33;;;3.90;;
64688;SDS011;62504;46.070;14.492;2023-11-18T06:51:29;9.53;;;3.93;;
64688;SDS011;62504;46.070;14.492;2023-11-18T06:53:57;8.27;;;3.80;;
64688;SDS011;62504;46.070;14.492;2023-11-18T06:56:26;9.93;;;3.67;;
64688;SDS011;62504;46.070;14.492;2023-11-18T06:58:52;8.90;;;4.13;;
64688;SDS011;62504;46.070;14.492;2023-11-18T07:01:18;7.80;;;3.63;;
64688;SDS011;62504;46.070;14.492;2023-11-18T07:03:46;9.33;;;3.50;;
64688;SDS011;62504;46.070;14.492;2023-11-18T07:06:19;7.73;;;3.83;;
64688;SDS011;62504;46.070;14.492;2023-11-18T07:08:48;9.93;;;3.63;;
64688;SDS011;62504;46.070;14.492;2023-11-18T07:11:18;28.37;;;12.67;;
64688;SDS011;62504;46.070;14.492;2023-11-18T07:13:44;10.50;;;4.40;;
64688;SDS011;62504;46.070;14.492;2023-11-18T07:16:10;17.37;;;7.43;;
64688;SDS011;62504;46.070;14.492;2023-11-18T07:18:37;9.80;;;4.47;;
64688;SDS011;62504;46.070;14.492;2023-11-18T07:21:03;10.20;;;4.17;;
64688;SDS011;62504;46.070;14.492;2023-11-18T07:23:30;10.53;;;3.97;;
64688;SDS011;62504;46.070;14.492;2023-11-18T07:25:56;9.23;;;3.73;;
64688;SDS011;62504;46.070;14.492;2023-11-18T07:28:22;7.60;;;3.93;;
64688;SDS011;62504;46.070;14.492;2023-11-18T07:30:48;9.77;;;3.27;;
64688;SDS011;62504;46.070;14.492;2023-11-18T07:33:14;6.10;;;2.97;;
64688;SDS011;62504;46.070;14.492;2023-11-18T07:35:41;7.80;;;3.30;;
64688;SDS011;62504;46.070;14.492;2023-11-18T07:38:07;9.47;;;4.13;;
64688;SDS011;62504;46.070;14.492;2023-11-18T07:40:34;10.30;;;4.20;;
64688;SDS011;62504;46.070;14.492;2023-11-18T07:43:00;8.87;;;3.67;;
64688;SDS011;62504;46.070;14.492;2023-11-18T07:45:27;8.97;;;3.93;;
64688;SDS011;62504;46.070;14.492;2023-11-18T07:47:53;12.93;;;5.83;;
64688;SDS011;62504;46.070;14.492;2023-11-18T07:50:19;10.93;;;4.97;;
64688;SDS011;62504;46.070;14.492;2023-11-18T07:52:46;12.13;;;5.90;;
64688;SDS011;62504;46.070;14.492;2023-11-18T07:55:15;15.90;;;6.27;;
64688;SDS011;62504;46.070;14.492;2023-11-18T07:57:41;12.67;;;6.10;;
64688;SDS011;62504;46.070;14.492;2023-11-18T08:00:08;11.13;;;5.57;;
64688;SDS011;62504;46.070;14.492;2023-11-18T08:02:36;8.67;;;4.80;;
64688;SDS011;62504;46.070;14.492;2023-11-18T08:05:03;14.27;;;5.93;;
64688;SDS011;62504;46.070;14.492;2023-11-18T08:07:33;7.70;;;4.33;;
64688;SDS011;62504;46.070;14.492;2023-11-18T08:10:00;12.60;;;4.30;;
64688;SDS011;62504;46.070;14.492;2023-11-18T08:12:28;10.33;;;4.87;;
64688;SDS011;62504;46.070;14.492;2023-11-18T08:14:55;8.53;;;3.90;;
64688;SDS011;62504;46.070;14.492;2023-11-18T08:17:21;9.90;;;4.83;;
64688;SDS011;62504;46.070;14.492;2023-11-18T08:19:46;11.43;;;4.47;;
64688;SDS011;62504;46.070;14.492;2023-11-18T08:22:12;8.27;;;3.97;;
64688;SDS011;62504;46.070;14.492;2023-11-18T08:24:38;14.07;;;5.60;;
64688;SDS011;62504;46.070;14.492;2023-11-18T08:27:04;11.20;;;4.60;;
64688;SDS011;62504;46.070;14.492;2023-11-18T08:29:32;10.40;;;5.50;;
64688;SDS011;62504;46.070;14.492;2023-11-18T08:31:58;9.00;;;5.27;;
64688;SDS011;62504;46.070;14.492;2023-11-18T08:34:23;10.03;;;5.23;;
64688;SDS011;62504;46.070;14.492;2023-11-18T08:36:51;13.27;;;5.40;;
64688;SDS011;62504;46.070;14.492;2023-11-18T08:39:17;16.03;;;6.00;;
64688;SDS011;62504;46.070;14.492;2023-11-18T08:41:45;13.37;;;5.47;;
64688;SDS011;62504;46.070;14.492;2023-11-18T08:44:15;9.23;;;5.23;;
64688;SDS011;62504;46.070;14.492;2023-11-18T08:46:42;10.20;;;5.20;;
64688;SDS011;62504;46.070;14.492;2023-11-18T08:49:08;10.70;;;4.40;;
64688;SDS011;62504;46.070;14.492;2023-11-18T08:51:39;14.13;;;5.70;;
64688;SDS011;62504;46.070;14.492;2023-11-18T08:54:08;12.70;;;5.77;;
64688;SDS011;62504;46.070;14.492;2023-11-18T08:56:53;9.97;;;4.77;;
64688;SDS011;62504;46.070;14.492;2023-11-18T08:59:19;11.30;;;5.20;;
64688;SDS011;62504;46.070;14.492;2023-11-18T09:01:52;8.87;;;4.17;;
64688;SDS011;62504;46.070;14.492;2023-11-18T09:04:24;10.60;;;4.43;;
64688;SDS011;62504;46.070;14.492;2023-11-18T09:06:50;7.23;;;4.03;;
64688;SDS011;62504;46.070;14.492;2023-11-18T09:09:22;7.83;;;4.00;;
64688;SDS011;62504;46.070;14.492;2023-11-18T09:11:51;9.57;;;4.20;;
64688;SDS011;62504;46.070;14.492;2023-11-18T09:14:24;10.40;;;3.93;;
64688;SDS011;62504;46.070;14.492;2023-11-18T09:16:51;11.03;;;4.90;;
64688;SDS011;62504;46.070;14.492;2023-11-18T09:19:20;10.13;;;5.93;;
64688;SDS011;62504;46.070;14.492;2023-11-18T09:21:46;12.27;;;5.67;;
64688;SDS011;62504;46.070;14.492;2023-11-18T09:24:13;12.27;;;6.30;;
64688;SDS011;62504;46.070;14.492;2023-11-18T09:26:43;8.27;;;4.70;;
64688;SDS011;62504;46.070;14.492;2023-11-18T09:29:12;8.27;;;4.90;;
64688;SDS011;62504;46.070;14.492;2023-11-18T09:31:49;8.13;;;4.77;;
64688;SDS011;62504;46.070;14.492;2023-11-18T09:34:17;11.90;;;4.50;;
64688;SDS011;62504;46.070;14.492;2023-11-18T09:36:51;9.63;;;5.00;;
64688;SDS011;62504;46.070;14.492;2023-11-18T09:39:18;15.13;;;8.53;;
64688;SDS011;62504;46.070;14.492;2023-11-18T09:41:57;18.80;;;9.30;;
64688;SDS011;62504;46.070;14.492;2023-11-18T09:44:23;6.37;;;4.37;;
64688;SDS011;62504;46.070;14.492;2023-11-18T09:46:57;7.80;;;4.30;;
64688;SDS011;62504;46.070;14.492;2023-11-18T09:49:31;9.17;;;4.50;;
64688;SDS011;62504;46.070;14.492;2023-11-18T09:52:04;10.50;;;4.50;;
64688;SDS011;62504;46.070;14.492;2023-11-18T09:54:43;9.50;;;5.10;;
64688;SDS011;62504;46.070;14.492;2023-11-18T10:00:03;8.03;;;4.67;;
64688;SDS011;62504;46.070;14.492;2023-11-18T10:02:44;10.10;;;4.20;;
64688;SDS011;62504;46.070;14.492;2023-11-18T10:05:11;8.97;;;4.60;;
64688;SDS011;62504;46.070;14.492;2023-11-18T10:07:39;6.43;;;4.57;;
64688;SDS011;62504;46.070;14.492;2023-11-18T10:10:06;11.33;;;5.67;;
64688;SDS011;62504;46.070;14.492;2023-11-18T10:12:42;11.23;;;5.10;;
64688;SDS011;62504;46.070;14.492;2023-11-18T10:15:17;10.30;;;5.27;;
64688;SDS011;62504;46.070;14.492;2023-11-18T10:17:48;6.67;;;4.33;;
64688;SDS011;62504;46.070;14.492;2023-11-18T10:20:42;7.83;;;4.50;;
64688;SDS011;62504;46.070;14.492;2023-11-18T10:23:16;13.73;;;5.17;;
64688;SDS011;62504;46.070;14.492;2023-11-18T10:33:32;11.77;;;5.57;;
64688;SDS011;62504;46.070;14.492;2023-11-18T10:36:03;11.63;;;4.80;;
64688;SDS011;62504;46.070;14.492;2023-11-18T10:38:30;9.83;;;4.90;;
64688;SDS011;62504;46.070;14.492;2023-11-18T10:40:57;13.60;;;4.90;;
64688;SDS011;62504;46.070;14.492;2023-11-18T10:43:26;9.03;;;4.80;;
64688;SDS011;62504;46.070;14.492;2023-11-18T10:46:27;12.07;;;5.27;;
64688;SDS011;62504;46.070;14.492;2023-11-18T10:48:48;13.03;;;6.83;;
64688;SDS011;62504;46.070;14.492;2023-11-18T10:51:16;11.23;;;5.20;;
64688;SDS011;62504;46.070;14.492;2023-11-18T10:53:44;9.43;;;4.60;;
64688;SDS011;62504;46.070;14.492;2023-11-18T10:56:23;13.80;;;5.50;;
64688;SDS011;62504;46.070;14.492;2023-11-18T11:01:30;7.47;;;3.93;;
64688;SDS011;62504;46.070;14.492;2023-11-18T11:03:57;8.00;;;3.93;;
64688;SDS011;62504;46.070;14.492;2023-11-18T11:06:26;10.10;;;3.90;;
64688;SDS011;62504;46.070;14.492;2023-11-18T11:08:56;13.87;;;6.70;;
64688;SDS011;62504;46.070;14.492;2023-11-18T11:11:28;8.70;;;3.67;;
64688;SDS011;62504;46.070;14.492;2023-11-18T11:14:04;8.10;;;3.60;;
64688;SDS011;62504;46.070;14.492;2023-11-18T11:16:41;9.90;;;3.77;;
64688;SDS011;62504;46.070;14.492;2023-11-18T11:19:15;8.20;;;3.77;;
64688;SDS011;62504;46.070;14.492;2023-11-18T11:22:07;7.57;;;3.60;;
64688;SDS011;62504;46.070;14.492;2023-11-18T11:27:17;7.90;;;3.90;;
64688;SDS011;62504;46.070;14.492;2023-11-18T11:30:12;7.30;;;3.67;;
64688;SDS011;62504;46.070;14.492;2023-11-18T11:36:02;6.60;;;3.70;;
64688;SDS011;62504;46.070;14.492;2023-11-18T11:38:31;7.83;;;3.80;;
64688;SDS011;62504;46.070;14.492;2023-11-18T11:40:57;6.20;;;4.07;;
64688;SDS011;62504;46.070;14.492;2023-11-18T11:43:27;9.50;;;3.80;;
64688;SDS011;62504;46.070;14.492;2023-11-18T11:45:53;6.07;;;3.67;;
64688;SDS011;62504;46.070;14.492;2023-11-18T11:48:20;7.27;;;3.80;;
64688;SDS011;62504;46.070;14.492;2023-11-18T11:51:10;8.60;;;3.60;;
64688;SDS011;62504;46.070;14.492;2023-11-18T11:53:47;12.93;;;4.70;;
64688;SDS011;62504;46.070;14.492;2023-11-18T11:56:19;8.90;;;4.10;;
64688;SDS011;62504;46.070;14.492;2023-11-18T11:58:49;11.00;;;4.30;;
64688;SDS011;62504;46.070;14.492;2023-11-18T12:04:02;10.97;;;4.90;;
64688;SDS011;62504;46.070;14.492;2023-11-18T12:06:46;7.47;;;4.10;;
64688;SDS011;62504;46.070;14.492;2023-11-18T12:09:16;12.87;;;4.30;;
64688;SDS011;62504;46.070;14.492;2023-11-18T12:11:47;8.47;;;3.80;;
64688;SDS011;62504;46.070;14.492;2023-11-18T12:14:14;9.77;;;4.30;;
64688;SDS011;62504;46.070;14.492;2023-11-18T12:19:40;10.20;;;4.17;;
64688;SDS011;62504;46.070;14.492;2023-11-18T12:22:21;8.53;;;4.57;;
64688;SDS011;62504;46.070;14.492;2023-11-18T12:35:35;11.30;;;4.33;;
64688;SDS011;62504;46.070;14.492;2023-11-18T12:41:34;9.43;;;4.10;;
64688;SDS011;62504;46.070;14.492;2023-11-18T12:49:20;10.07;;;5.00;;
64688;SDS011;62504;46.070;14.492;2023-11-18T12:51:49;7.70;;;4.23;;
64688;SDS011;62504;46.070;14.492;2023-11-18T12:54:20;8.57;;;4.40;;
64688;SDS011;62504;46.070;14.492;2023-11-18T12:56:50;8.47;;;4.27;;
64688;SDS011;62504;46.070;14.492;2023-11-18T12:59:18;8.37;;;5.00;;
64688;SDS011;62504;46.070;14.492;2023-11-18T13:01:52;9.97;;;5.03;;
64688;SDS011;62504;46.070;14.492;2023-11-18T13:04:24;22.37;;;9.60;;
64688;SDS011;62504;46.070;14.492;2023-11-18T13:06:50;11.37;;;6.70;;
64688;SDS011;62504;46.070;14.492;2023-11-18T13:09:16;11.30;;;4.87;;
64688;SDS011;62504;46.070;14.492;2023-11-18T13:11:54;8.13;;;3.70;;
64688;SDS011;62504;46.070;14.492;2023-11-18T13:14:27;10.30;;;4.40;;
64688;SDS011;62504;46.070;14.492;2023-11-18T13:16:53;8.63;;;3.90;;
64688;SDS011;62504;46.070;14.492;2023-11-18T13:19:24;9.10;;;3.90;;
64688;SDS011;62504;46.070;14.492;2023-11-18T13:21:51;9.50;;;4.77;;
64688;SDS011;62504;46.070;14.492;2023-11-18T13:24:21;10.57;;;4.40;;
64688;SDS011;62504;46.070;14.492;2023-11-18T13:26:46;8.23;;;4.00;;
64688;SDS011;62504;46.070;14.492;2023-11-18T13:29:13;9.00;;;3.93;;
64688;SDS011;62504;46.070;14.492;2023-11-18T13:31:41;13.03;;;5.60;;
64688;SDS011;62504;46.070;14.492;2023-11-18T13:34:08;13.20;;;5.00;;
64688;SDS011;62504;46.070;14.492;2023-11-18T13:36:35;10.77;;;4.80;;
64688;SDS011;62504;46.070;14.492;2023-11-18T13:39:02;10.80;;;4.60;;
64688;SDS011;62504;46.070;14.492;2023-11-18T13:41:30;16.57;;;5.73;;
64688;SDS011;62504;46.070;14.492;2023-11-18T13:43:57;10.37;;;4.97;;
64688;SDS011;62504;46.070;14.492;2023-11-18T13:46:23;10.00;;;4.80;;
64688;SDS011;62504;46.070;14.492;2023-11-18T13:48:49;9.37;;;4.20;;
64688;SDS011;62504;46.070;14.492;2023-11-18T13:51:17;15.00;;;6.17;;
64688;SDS011;62504;46.070;14.492;2023-11-18T13:53:44;8.63;;;3.90;;
64688;SDS011;62504;46.070;14.492;2023-11-18T13:56:12;9.57;;;4.00;;
64688;SDS011;62504;46.070;14.492;2023-11-18T13:58:38;11.20;;;4.70;;
64688;SDS011;62504;46.070;14.492;2023-11-18T14:01:05;8.77;;;3.90;;
64688;SDS011;62504;46.070;14.492;2023-11-18T14:03:35;9.70;;;3.87;;
64688;SDS011;62504;46.070;14.492;2023-11-18T14:06:03;11.87;;;5.03;;
64688;SDS011;62504;46.070;14.492;2023-11-18T14:08:32;32.60;;;9.23;;
64688;SDS011;62504;46.070;14.492;2023-11-18T14:10:59;16.90;;;6.27;;
64688;SDS011;62504;46.070;14.492;2023-11-18T14:13:25;20.87;;;6.87;;
64688;SDS011;62504;46.070;14.492;2023-11-18T14:15:55;12.47;;;4.73;;
64688;SDS011;62504;46.070;14.492;2023-11-18T14:18:25;14.17;;;6.37;;
64688;SDS011;62504;46.070;14.492;2023-11-18T14:20:51;19.37;;;7.90;;
64688;SDS011;62504;46.070;14.492;2023-11-18T14:23:17;15.90;;;7.77;;
64688;SDS011;62504;46.070;14.492;2023-11-18T14:25:43;11.93;;;4.10;;
64688;SDS011;62504;46.070;14.492;2023-11-18T14:28:13;10.63;;;4.87;;
64688;SDS011;62504;46.070;14.492;2023-11-18T14:30:38;9.93;;;4.80;;
64688;SDS011;62504;46.070;14.492;2023-11-18T14:33:05;9.33;;;4.30;;
64688;SDS011;62504;46.070;14.492;2023-11-18T14:35:32;11.87;;;4.47;;
64688;SDS011;62504;46.070;14.492;2023-11-18T14:37:58;9.73;;;5.10;;
64688;SDS011;62504;46.070;14.492;2023-11-18T14:40:26;10.63;;;4.20;;
64688;SDS011;62504;46.070;14.492;2023-11-18T14:42:53;8.63;;;4.67;;
64688;SDS011;62504;46.070;14.492;2023-11-18T14:45:19;9.27;;;4.57;;
64688;SDS011;62504;46.070;14.492;2023-11-18T14:47:45;11.73;;;4.80;;
64688;SDS011;62504;46.070;14.492;2023-11-18T14:50:13;12.93;;;5.93;;
64688;SDS011;62504;46.070;14.492;2023-11-18T14:52:45;18.63;;;8.23;;
64688;SDS011;62504;46.070;14.492;2023-11-18T14:55:12;29.57;;;11.00;;
64688;SDS011;62504;46.070;14.492;2023-11-18T14:57:41;29.13;;;10.43;;
64688;SDS011;62504;46.070;14.492;2023-11-18T15:00:09;25.97;;;10.77;;
64688;SDS011;62504;46.070;14.492;2023-11-18T15:02:47;27.87;;;11.07;;
64688;SDS011;62504;46.070;14.492;2023-11-18T15:05:16;21.90;;;9.47;;
64688;SDS011;62504;46.070;14.492;2023-11-18T15:10:13;32.17;;;11.57;;
64688;SDS011;62504;46.070;14.492;2023-11-18T15:12:49;28.97;;;10.67;;
64688;SDS011;62504;46.070;14.492;2023-11-18T15:15:29;27.03;;;10.77;;
64688;SDS011;62504;46.070;14.492;2023-11-18T15:17:59;22.37;;;8.33;;
64688;SDS011;62504;46.070;14.492;2023-11-18T15:20:33;18.73;;;8.00;;
64688;SDS011;62504;46.070;14.492;2023-11-18T15:23:03;19.33;;;7.60;;
64688;SDS011;62504;46.070;14.492;2023-11-18T15:25:29;15.23;;;6.63;;